PWSweather.com
Personal Weather Stations
Station Observations

ChardChardGB

Lat: 50.877408, Lon: -2.94964741

Elevation: 341

Station Type: WS3083

http://www.merriott-astro.co.uk/weather/index.htm

High Low Average
Temperature 52.9°F11.6°C 44.8°F7.1°C 49.3°F9.6°C
Dew Point 51.2°F10.7°C 37.0°F2.8°C 44.3°F6.8°C
Winds 22.8 mph 36.7 kmh Calm Calm 9.0 mph SSW14.5 kmh SSW
Wind Gusts 30.4 mph48.9 kmh -- 12.0 mph19.3 kmh
Humidity 94% 65% 83%
Pressure 28.98 in981.4 mb 28.45 in963.4 mb -
Precipitation 0.44 in11.2 mm - -
Hour Temp Dew Point Humidity Winds Wind Gusts Pressure Precip Precip Rate Daily Precip Total
12:00 AM 49.8°F9.9°C 44.9°F7.2°C 83% 4.7 mph WNW7.6 kmh WNW 6.9 mph11.1 kmh 28.98 in981.4 mb 0.00 in0.0 mm 0.00 in0.0 mm 0.00 in0.0 mm
12:10 AM 49.8°F9.9°C 44.9°F7.2°C 83% 5.3 mph SW8.5 kmh SW 7.6 mph12.2 kmh 28.98 in981.4 mb 0.00 in0.0 mm 0.00 in0.0 mm 0.00 in0.0 mm
12:20 AM 49.8°F9.9°C 44.6°F7.0°C 82% 3.7 mph SW6.0 kmh SW 6.0 mph9.7 kmh 28.97 in981.0 mb 0.00 in0.0 mm 0.00 in0.0 mm 0.00 in0.0 mm
12:30 AM 49.8°F9.9°C 44.6°F7.0°C 82% 4.4 mph SW7.1 kmh SW 7.6 mph12.2 kmh 28.96 in980.7 mb 0.00 in0.0 mm 0.00 in0.0 mm 0.00 in0.0 mm
12:40 AM 49.8°F9.9°C 44.6°F7.0°C 82% 3.8 mph WSW6.1 kmh WSW 6.0 mph9.7 kmh 28.96 in980.7 mb 0.00 in0.0 mm 0.00 in0.0 mm 0.00 in0.0 mm
12:50 AM 49.8°F9.9°C 44.6°F7.0°C 82% 5.2 mph SW8.4 kmh SW 6.9 mph11.1 kmh 28.96 in980.7 mb 0.00 in0.0 mm 0.00 in0.0 mm 0.00 in0.0 mm
01:00 AM 49.6°F9.8°C 44.4°F6.9°C 82% 3.7 mph SW6.0 kmh SW 5.4 mph8.7 kmh 28.95 in980.4 mb 0.00 in0.0 mm 0.00 in0.0 mm 0.00 in0.0 mm
01:10 AM 49.6°F9.8°C 44.4°F6.9°C 82% 4.5 mph SW7.2 kmh SW 6.0 mph9.7 kmh 28.96 in980.7 mb 0.00 in0.0 mm 0.00 in0.0 mm 0.00 in0.0 mm
01:20 AM 49.6°F9.8°C 44.1°F6.7°C 81% 4.1 mph SSW6.6 kmh SSW 8.3 mph13.4 kmh 28.95 in980.4 mb 0.00 in0.0 mm 0.00 in0.0 mm 0.00 in0.0 mm
01:30 AM 49.8°F9.9°C 44.2°F6.8°C 81% 4.2 mph SW6.8 kmh SW 6.9 mph11.1 kmh 28.95 in980.4 mb 0.00 in0.0 mm 0.00 in0.0 mm 0.00 in0.0 mm
01:40 AM 49.8°F9.9°C 43.9°F6.6°C 80% 4.4 mph SW7.1 kmh SW 6.9 mph11.1 kmh 28.95 in980.4 mb 0.00 in0.0 mm 0.00 in0.0 mm 0.00 in0.0 mm
01:50 AM 49.8°F9.9°C 43.9°F6.6°C 80% 4.0 mph SW6.4 kmh SW 7.6 mph12.2 kmh 28.94 in980.0 mb 0.00 in0.0 mm 0.00 in0.0 mm 0.00 in0.0 mm
02:00 AM 49.6°F9.8°C 43.7°F6.5°C 80% 2.6 mph SW4.2 kmh SW 4.5 mph7.2 kmh 28.94 in980.0 mb 0.00 in0.0 mm 0.00 in0.0 mm 0.00 in0.0 mm
02:10 AM 49.6°F9.8°C 44.1°F6.7°C 81% 1.8 mph SSW2.9 kmh SSW 2.2 mph3.5 kmh 28.93 in979.7 mb 0.00 in0.0 mm 0.00 in0.0 mm 0.00 in0.0 mm
02:20 AM 49.5°F9.7°C 43.9°F6.6°C 81% 1.8 mph SW2.9 kmh SW 3.1 mph5.0 kmh 28.94 in980.0 mb 0.00 in0.0 mm 0.00 in0.0 mm 0.00 in0.0 mm
02:30 AM 49.5°F9.7°C 44.5°F6.9°C 83% 3.0 mph SSW4.8 kmh SSW 4.5 mph7.2 kmh 28.93 in979.7 mb 0.00 in0.0 mm 0.00 in0.0 mm 0.00 in0.0 mm
02:40 AM 49.3°F9.6°C 44.3°F6.8°C 83% 2.5 mph SW4.0 kmh SW 4.5 mph7.2 kmh 28.93 in979.7 mb 0.00 in0.0 mm 0.00 in0.0 mm 0.00 in0.0 mm
02:50 AM 49.1°F9.5°C 44.2°F6.8°C 83% 3.7 mph SW6.0 kmh SW 5.4 mph8.7 kmh 28.92 in979.3 mb 0.00 in0.0 mm 0.00 in0.0 mm 0.00 in0.0 mm
03:00 AM 49.1°F9.5°C 43.5°F6.4°C 81% 3.3 mph S5.3 kmh S 5.4 mph8.7 kmh 28.92 in979.3 mb 0.00 in0.0 mm 0.00 in0.0 mm 0.00 in0.0 mm
03:10 AM 49.1°F9.5°C 43.5°F6.4°C 81% 4.1 mph SW6.6 kmh SW 8.3 mph13.4 kmh 28.91 in979.0 mb 0.00 in0.0 mm 0.00 in0.0 mm 0.00 in0.0 mm
03:20 AM 48.7°F9.3°C 43.2°F6.2°C 81% 2.5 mph SSW4.0 kmh SSW 3.8 mph6.1 kmh 28.92 in979.3 mb 0.00 in0.0 mm 0.00 in0.0 mm 0.00 in0.0 mm
03:30 AM 48.4°F9.1°C 42.8°F6.0°C 81% 3.3 mph S5.3 kmh S 4.5 mph7.2 kmh 28.91 in979.0 mb 0.01 in0.3 mm 0.06 in1.5 mm 0.01 in0.3 mm
03:40 AM 48.2°F9.0°C 43.0°F6.1°C 82% 3.0 mph SW4.8 kmh SW 6.9 mph11.1 kmh 28.91 in979.0 mb 0.02 in0.5 mm 0.06 in1.5 mm 0.02 in0.5 mm
03:50 AM 48.2°F9.0°C 43.6°F6.4°C 84% 5.0 mph SW8.0 kmh SW 8.3 mph13.4 kmh 28.90 in978.7 mb 0.02 in0.5 mm 0.00 in0.0 mm 0.02 in0.5 mm
04:00 AM 48.0°F8.9°C 43.7°F6.5°C 85% 4.7 mph SSW7.6 kmh SSW 6.0 mph9.7 kmh 28.89 in978.3 mb 0.02 in0.5 mm 0.00 in0.0 mm 0.02 in0.5 mm
04:10 AM 47.8°F8.8°C 43.6°F6.4°C 85% 0.8 mph SSE1.3 kmh SSE 3.8 mph6.1 kmh 28.89 in978.3 mb 0.02 in0.5 mm 0.00 in0.0 mm 0.02 in0.5 mm
04:20 AM 47.8°F8.8°C 43.9°F6.6°C 86% 3.3 mph SSW5.3 kmh SSW 5.4 mph8.7 kmh 28.89 in978.3 mb 0.02 in0.5 mm 0.00 in0.0 mm 0.02 in0.5 mm
04:30 AM 47.8°F8.8°C 44.2°F6.8°C 87% 2.1 mph SSW3.4 kmh SSW 4.5 mph7.2 kmh 28.88 in978.0 mb 0.02 in0.5 mm 0.00 in0.0 mm 0.04 in1.0 mm
04:40 AM 47.8°F8.8°C 44.2°F6.8°C 87% 0.3 mph S0.5 kmh S 2.2 mph3.5 kmh 28.88 in978.0 mb 0.01 in0.3 mm 0.00 in0.0 mm 0.04 in1.0 mm
04:50 AM 48.0°F8.9°C 44.6°F7.0°C 88% Calm Calm -- 28.87 in977.7 mb 0.01 in0.3 mm 0.00 in0.0 mm 0.04 in1.0 mm
05:00 AM 48.4°F9.1°C 45.3°F7.4°C 89% 1.9 mph SSW3.1 kmh SSW 5.4 mph8.7 kmh 28.86 in977.3 mb 0.01 in0.3 mm 0.00 in0.0 mm 0.04 in1.0 mm
05:10 AM 48.4°F9.1°C 45.3°F7.4°C 89% Calm Calm -- 28.86 in977.3 mb 0.02 in0.5 mm 0.06 in1.5 mm 0.05 in1.3 mm
05:20 AM 48.4°F9.1°C 45.6°F7.6°C 90% 1.9 mph SSW3.1 kmh SSW 6.0 mph9.7 kmh 28.86 in977.3 mb 0.02 in0.5 mm 0.00 in0.0 mm 0.05 in1.3 mm
05:30 AM 48.4°F9.1°C 45.6°F7.6°C 90% 1.6 mph S2.6 kmh S 7.6 mph12.2 kmh 28.85 in977.0 mb 0.01 in0.3 mm 0.00 in0.0 mm 0.05 in1.3 mm
05:40 AM 48.2°F9.0°C 45.4°F7.4°C 90% 2.1 mph SSW3.4 kmh SSW 7.6 mph12.2 kmh 28.84 in976.6 mb 0.01 in0.3 mm 0.00 in0.0 mm 0.05 in1.3 mm
05:50 AM 48.4°F9.1°C 45.6°F7.6°C 90% 2.4 mph SW3.9 kmh SW 6.9 mph11.1 kmh 28.84 in976.6 mb 0.01 in0.3 mm 0.00 in0.0 mm 0.05 in1.3 mm
06:00 AM 48.4°F9.1°C 45.9°F7.7°C 91% 0.4 mph WSW0.6 kmh WSW 3.1 mph5.0 kmh 28.84 in976.6 mb 0.01 in0.3 mm 0.00 in0.0 mm 0.05 in1.3 mm
06:10 AM 48.4°F9.1°C 45.9°F7.7°C 91% 0.7 mph SW1.1 kmh SW 4.5 mph7.2 kmh 28.83 in976.3 mb 0.00 in0.0 mm 0.00 in0.0 mm 0.05 in1.3 mm
06:20 AM 48.6°F9.2°C 46.1°F7.8°C 91% 4.2 mph SSW6.8 kmh SSW 10.7 mph17.2 kmh 28.83 in976.3 mb 0.01 in0.3 mm 0.06 in1.5 mm 0.06 in1.5 mm
06:30 AM 49.1°F9.5°C 46.9°F8.3°C 92% 5.7 mph S9.2 kmh S 10.7 mph17.2 kmh 28.82 in976.0 mb 0.01 in0.3 mm 0.00 in0.0 mm 0.06 in1.5 mm
06:40 AM 49.3°F9.6°C 47.1°F8.4°C 92% 9.6 mph S15.4 kmh S 11.4 mph18.3 kmh 28.81 in975.6 mb 0.01 in0.3 mm 0.00 in0.0 mm 0.06 in1.5 mm
06:50 AM 49.3°F9.6°C 47.1°F8.4°C 92% 11.4 mph S18.3 kmh S 11.4 mph18.3 kmh 28.81 in975.6 mb 0.01 in0.3 mm 0.00 in0.0 mm 0.06 in1.5 mm
07:00 AM 49.3°F9.6°C 47.1°F8.4°C 92% 11.4 mph S18.3 kmh S 11.4 mph18.3 kmh 28.80 in975.3 mb 0.01 in0.3 mm 0.00 in0.0 mm 0.06 in1.5 mm
07:10 AM 49.3°F9.6°C 47.1°F8.4°C 92% 11.4 mph S18.3 kmh S 11.4 mph18.3 kmh 28.81 in975.6 mb 0.01 in0.3 mm 0.00 in0.0 mm 0.06 in1.5 mm
07:20 AM 49.3°F9.6°C 47.1°F8.4°C 92% 11.4 mph S18.3 kmh S 11.4 mph18.3 kmh 28.80 in975.3 mb 0.00 in0.0 mm 0.00 in0.0 mm 0.06 in1.5 mm
07:30 AM 49.3°F9.6°C 47.1°F8.4°C 92% 11.4 mph S18.3 kmh S 11.4 mph18.3 kmh 28.80 in975.3 mb 0.00 in0.0 mm 0.00 in0.0 mm 0.06 in1.5 mm
07:40 AM 49.3°F9.6°C 47.1°F8.4°C 92% 11.4 mph S18.3 kmh S 11.4 mph18.3 kmh 28.79 in974.9 mb 0.00 in0.0 mm 0.00 in0.0 mm 0.06 in1.5 mm
07:50 AM 49.3°F9.6°C 47.1°F8.4°C 92% 11.4 mph S18.3 kmh S 11.4 mph18.3 kmh 28.79 in974.9 mb 0.00 in0.0 mm 0.00 in0.0 mm 0.06 in1.5 mm
08:00 AM 49.3°F9.6°C 47.1°F8.4°C 92% 11.4 mph S18.3 kmh S 11.4 mph18.3 kmh 28.79 in974.9 mb 0.00 in0.0 mm 0.00 in0.0 mm 0.06 in1.5 mm
08:10 AM 49.3°F9.6°C 47.1°F8.4°C 92% 11.4 mph S18.3 kmh S 11.4 mph18.3 kmh 28.79 in974.9 mb 0.00 in0.0 mm 0.00 in0.0 mm 0.06 in1.5 mm
08:20 AM 49.3°F9.6°C 47.1°F8.4°C 92% 11.4 mph S18.3 kmh S 11.4 mph18.3 kmh 28.79 in974.9 mb 0.00 in0.0 mm 0.00 in0.0 mm 0.06 in1.5 mm
08:30 AM 49.3°F9.6°C 47.1°F8.4°C 92% 11.4 mph S18.3 kmh S 11.4 mph18.3 kmh 28.79 in974.9 mb 0.00 in0.0 mm 0.00 in0.0 mm 0.06 in1.5 mm
08:40 AM 49.3°F9.6°C 47.1°F8.4°C 92% 11.4 mph S18.3 kmh S 11.4 mph18.3 kmh 28.79 in974.9 mb 0.00 in0.0 mm 0.00 in0.0 mm 0.06 in1.5 mm
08:50 AM 49.3°F9.6°C 47.1°F8.4°C 92% 11.4 mph S18.3 kmh S 11.4 mph18.3 kmh 28.80 in975.3 mb 0.00 in0.0 mm 0.00 in0.0 mm 0.06 in1.5 mm
09:00 AM 49.3°F9.6°C 47.1°F8.4°C 92% 11.4 mph S18.3 kmh S 11.4 mph18.3 kmh 28.79 in974.9 mb 0.00 in0.0 mm 0.00 in0.0 mm 0.06 in1.5 mm
09:10 AM 49.3°F9.6°C 47.1°F8.4°C 92% 11.4 mph S18.3 kmh S 11.4 mph18.3 kmh 28.80 in975.3 mb 0.00 in0.0 mm 0.00 in0.0 mm 0.06 in1.5 mm
09:20 AM 49.3°F9.6°C 47.1°F8.4°C 92% 11.4 mph S18.3 kmh S 11.4 mph18.3 kmh 28.79 in974.9 mb 0.00 in0.0 mm 0.00 in0.0 mm 0.06 in1.5 mm
09:30 AM 49.3°F9.6°C 47.1°F8.4°C 92% 11.4 mph S18.3 kmh S 11.4 mph18.3 kmh 28.79 in974.9 mb 0.00 in0.0 mm 0.00 in0.0 mm 0.06 in1.5 mm
09:40 AM 49.3°F9.6°C 47.1°F8.4°C 92% 11.4 mph S18.3 kmh S 11.4 mph18.3 kmh 28.79 in974.9 mb 0.00 in0.0 mm 0.00 in0.0 mm 0.06 in1.5 mm
09:50 AM 49.3°F9.6°C 47.1°F8.4°C 92% 11.4 mph S18.3 kmh S 11.4 mph18.3 kmh 28.79 in974.9 mb 0.00 in0.0 mm 0.00 in0.0 mm 0.06 in1.5 mm
10:00 AM 49.3°F9.6°C 47.1°F8.4°C 92% 11.4 mph S18.3 kmh S 11.4 mph18.3 kmh 28.79 in974.9 mb 0.00 in0.0 mm 0.00 in0.0 mm 0.06 in1.5 mm
10:10 AM 49.3°F9.6°C 47.1°F8.4°C 92% 11.4 mph S18.3 kmh S 11.4 mph18.3 kmh 28.78 in974.6 mb 0.00 in0.0 mm 0.00 in0.0 mm 0.06 in1.5 mm
10:20 AM 49.3°F9.6°C 47.1°F8.4°C 92% 11.4 mph S18.3 kmh S 11.4 mph18.3 kmh 28.78 in974.6 mb 0.00 in0.0 mm 0.00 in0.0 mm 0.06 in1.5 mm
10:30 AM 49.3°F9.6°C 47.1°F8.4°C 92% 11.4 mph S18.3 kmh S 11.4 mph18.3 kmh 28.78 in974.6 mb 0.00 in0.0 mm 0.00 in0.0 mm 0.06 in1.5 mm
10:40 AM 49.3°F9.6°C 47.1°F8.4°C 92% 11.4 mph S18.3 kmh S 11.4 mph18.3 kmh 28.77 in974.3 mb 0.00 in0.0 mm 0.00 in0.0 mm 0.06 in1.5 mm
10:50 AM 49.3°F9.6°C 47.1°F8.4°C 92% 11.4 mph S18.3 kmh S 11.4 mph18.3 kmh 28.75 in973.6 mb 0.00 in0.0 mm 0.00 in0.0 mm 0.06 in1.5 mm
11:00 AM 49.3°F9.6°C 47.1°F8.4°C 92% 11.4 mph S18.3 kmh S 11.4 mph18.3 kmh 28.75 in973.6 mb 0.00 in0.0 mm 0.00 in0.0 mm 0.06 in1.5 mm
11:10 AM 49.3°F9.6°C 47.1°F8.4°C 92% 11.4 mph S18.3 kmh S 11.4 mph18.3 kmh 28.74 in973.2 mb 0.00 in0.0 mm 0.00 in0.0 mm 0.06 in1.5 mm
11:20 AM 49.3°F9.6°C 47.1°F8.4°C 92% 11.4 mph S18.3 kmh S 11.4 mph18.3 kmh 28.74 in973.2 mb 0.00 in0.0 mm 0.00 in0.0 mm 0.06 in1.5 mm
11:30 AM 49.3°F9.6°C 47.1°F8.4°C 92% 11.4 mph S18.3 kmh S 11.4 mph18.3 kmh 28.72 in972.6 mb 0.00 in0.0 mm 0.00 in0.0 mm 0.06 in1.5 mm
11:40 AM 49.3°F9.6°C 47.1°F8.4°C 92% 11.4 mph S18.3 kmh S 11.4 mph18.3 kmh 28.71 in972.2 mb 0.00 in0.0 mm 0.00 in0.0 mm 0.06 in1.5 mm
11:50 AM 49.3°F9.6°C 47.1°F8.4°C 92% 11.4 mph S18.3 kmh S 11.4 mph18.3 kmh 28.71 in972.2 mb 0.00 in0.0 mm 0.00 in0.0 mm 0.06 in1.5 mm
12:00 PM 49.3°F9.6°C 47.1°F8.4°C 92% 11.4 mph S18.3 kmh S 11.4 mph18.3 kmh 28.71 in972.2 mb 0.00 in0.0 mm 0.00 in0.0 mm 0.06 in1.5 mm
12:10 PM 49.3°F9.6°C 47.1°F8.4°C 92% 11.4 mph S18.3 kmh S 11.4 mph18.3 kmh 28.70 in971.9 mb 0.00 in0.0 mm 0.00 in0.0 mm 0.06 in1.5 mm
12:20 PM 49.3°F9.6°C 47.1°F8.4°C 92% 11.4 mph S18.3 kmh S 11.4 mph18.3 kmh 28.68 in971.2 mb 0.00 in0.0 mm 0.00 in0.0 mm 0.06 in1.5 mm
12:30 PM 49.3°F9.6°C 47.1°F8.4°C 92% 11.4 mph S18.3 kmh S 11.4 mph18.3 kmh 28.68 in971.2 mb 0.00 in0.0 mm 0.00 in0.0 mm 0.06 in1.5 mm
12:40 PM 49.3°F9.6°C 47.1°F8.4°C 92% 11.4 mph S18.3 kmh S 11.4 mph18.3 kmh 28.66 in970.5 mb 0.00 in0.0 mm 0.00 in0.0 mm 0.06 in1.5 mm
12:50 PM 49.3°F9.6°C 47.1°F8.4°C 92% 11.4 mph S18.3 kmh S 11.4 mph18.3 kmh 28.65 in970.2 mb 0.00 in0.0 mm 0.00 in0.0 mm 0.06 in1.5 mm
01:00 PM 49.3°F9.6°C 47.1°F8.4°C 92% 11.4 mph S18.3 kmh S 11.4 mph18.3 kmh 28.65 in970.2 mb 0.00 in0.0 mm 0.00 in0.0 mm 0.06 in1.5 mm
01:10 PM 49.3°F9.6°C 47.1°F8.4°C 92% 11.4 mph S18.3 kmh S 11.4 mph18.3 kmh 28.63 in969.5 mb 0.00 in0.0 mm 0.00 in0.0 mm 0.06 in1.5 mm
01:20 PM 49.3°F9.6°C 47.1°F8.4°C 92% 11.4 mph S18.3 kmh S 11.4 mph18.3 kmh 28.62 in969.2 mb 0.00 in0.0 mm 0.00 in0.0 mm 0.06 in1.5 mm
01:30 PM 51.3°F10.7°C 48.7°F9.3°C 91% 14.2 mph S22.9 kmh S 26.6 mph42.8 kmh 28.61 in968.8 mb 0.12 in3.0 mm 0.72 in18.3 mm 0.18 in4.6 mm
01:50 PM 51.1°F10.6°C 48.8°F9.3°C 92% 21.7 mph SSW34.9 kmh SSW 28.9 mph46.5 kmh 28.59 in968.2 mb 0.19 in4.8 mm 0.21 in5.3 mm 0.25 in6.4 mm
02:00 PM 50.9°F10.5°C 48.7°F9.3°C 92% 21.5 mph SW34.6 kmh SW 30.4 mph48.9 kmh 28.58 in967.8 mb 0.25 in6.4 mm 0.07 in1.8 mm 0.31 in7.9 mm
02:10 PM 51.1°F10.6°C 48.8°F9.3°C 92% 20.4 mph SSW32.8 kmh SSW 25.1 mph40.4 kmh 28.58 in967.8 mb 0.27 in6.9 mm 0.12 in3.0 mm 0.33 in8.4 mm
02:20 PM 51.3°F10.7°C 49.3°F9.6°C 93% 17.6 mph SSW28.3 kmh SSW 28.9 mph46.5 kmh 28.56 in967.2 mb 0.30 in7.6 mm 0.18 in4.6 mm 0.35 in8.9 mm
02:30 PM 51.6°F10.9°C 49.7°F9.8°C 93% 21.0 mph SW33.8 kmh SW 28.9 mph46.5 kmh 28.56 in967.2 mb 0.22 in5.6 mm 0.00 in0.0 mm 0.40 in10.2 mm
02:40 PM 52.0°F11.1°C 50.3°F10.2°C 94% 22.8 mph SSW36.7 kmh SSW 29.8 mph48.0 kmh 28.56 in967.2 mb 0.18 in4.6 mm 0.00 in0.0 mm 0.41 in10.4 mm
02:50 PM 52.2°F11.2°C 50.5°F10.3°C 94% 21.7 mph S34.9 kmh S 25.9 mph41.7 kmh 28.55 in966.8 mb 0.14 in3.6 mm 0.00 in0.0 mm 0.41 in10.4 mm
03:00 PM 52.3°F11.3°C 50.7°F10.4°C 94% 20.9 mph SSW33.6 kmh SSW 30.4 mph48.9 kmh 28.54 in966.5 mb 0.11 in2.8 mm 0.00 in0.0 mm 0.41 in10.4 mm
03:10 PM 52.5°F11.4°C 50.8°F10.4°C 94% 16.6 mph S26.7 kmh S 19.7 mph31.7 kmh 28.54 in966.5 mb 0.07 in1.8 mm 0.00 in0.0 mm 0.41 in10.4 mm
03:20 PM 52.9°F11.6°C 51.2°F10.7°C 94% 14.4 mph WSW23.2 kmh WSW 20.6 mph33.2 kmh 28.53 in966.1 mb 0.06 in1.5 mm 0.00 in0.0 mm 0.41 in10.4 mm
03:30 PM 52.9°F11.6°C 51.2°F10.7°C 94% 13.6 mph SW21.9 kmh SW 19.7 mph31.7 kmh 28.54 in966.5 mb 0.01 in0.3 mm 0.00 in0.0 mm 0.41 in10.4 mm
03:40 PM 52.9°F11.6°C 51.2°F10.7°C 94% 15.0 mph SW24.1 kmh SW 27.3 mph43.9 kmh 28.53 in966.1 mb 0.00 in0.0 mm 0.00 in0.0 mm 0.41 in10.4 mm
03:50 PM 52.5°F11.4°C 50.8°F10.4°C 94% 14.8 mph SW23.8 kmh SW 21.3 mph34.3 kmh 28.52 in965.8 mb 0.00 in0.0 mm 0.00 in0.0 mm 0.41 in10.4 mm
04:00 PM 52.3°F11.3°C 50.4°F10.2°C 93% 12.8 mph SW20.6 kmh SW 21.3 mph34.3 kmh 28.52 in965.8 mb 0.00 in0.0 mm 0.00 in0.0 mm 0.41 in10.4 mm
04:10 PM 52.2°F11.2°C 49.9°F9.9°C 92% 14.6 mph SW23.5 kmh SW 19.7 mph31.7 kmh 28.53 in966.1 mb 0.00 in0.0 mm 0.00 in0.0 mm 0.41 in10.4 mm
04:20 PM 51.6°F10.9°C 48.5°F9.2°C 89% 15.6 mph S25.1 kmh S 22.8 mph36.7 kmh 28.51 in965.5 mb 0.00 in0.0 mm 0.00 in0.0 mm 0.41 in10.4 mm
04:30 PM 51.8°F11.0°C 47.1°F8.4°C 84% 14.8 mph SW23.8 kmh SW 18.3 mph29.5 kmh 28.51 in965.5 mb 0.00 in0.0 mm 0.00 in0.0 mm 0.41 in10.4 mm
04:40 PM 51.6°F10.9°C 46.3°F7.9°C 82% 14.8 mph SW23.8 kmh SW 22.1 mph35.6 kmh 28.53 in966.1 mb 0.01 in0.3 mm 0.06 in1.5 mm 0.43 in10.9 mm
04:50 PM 51.3°F10.7°C 44.6°F7.0°C 78% 15.2 mph SW24.5 kmh SW 19.0 mph30.6 kmh 28.52 in965.8 mb 0.01 in0.3 mm 0.00 in0.0 mm 0.43 in10.9 mm
05:00 PM 51.4°F10.8°C 43.1°F6.2°C 73% 14.7 mph S23.7 kmh S 20.6 mph33.2 kmh 28.52 in965.8 mb 0.01 in0.3 mm 0.00 in0.0 mm 0.43 in10.9 mm
05:10 PM 51.3°F10.7°C 42.2°F5.7°C 71% 13.6 mph SSE21.9 kmh SSE 19.7 mph31.7 kmh 28.52 in965.8 mb 0.01 in0.3 mm 0.00 in0.0 mm 0.43 in10.9 mm
05:20 PM 51.1°F10.6°C 42.0°F5.6°C 71% 16.8 mph SSW27.0 kmh SSW 22.8 mph36.7 kmh 28.51 in965.5 mb 0.01 in0.3 mm 0.00 in0.0 mm 0.43 in10.9 mm
05:30 PM 50.9°F10.5°C 42.2°F5.7°C 72% 12.3 mph SSW19.8 kmh SSW 20.6 mph33.2 kmh 28.51 in965.5 mb 0.01 in0.3 mm 0.00 in0.0 mm 0.43 in10.9 mm
05:40 PM 50.7°F10.4°C 42.0°F5.6°C 72% 13.3 mph SW21.4 kmh SW 21.3 mph34.3 kmh 28.52 in965.8 mb 0.00 in0.0 mm 0.00 in0.0 mm 0.43 in10.9 mm
05:50 PM 50.4°F10.2°C 41.7°F5.4°C 72% 9.4 mph WSW15.1 kmh WSW 17.4 mph28.0 kmh 28.51 in965.5 mb 0.00 in0.0 mm 0.00 in0.0 mm 0.43 in10.9 mm
06:00 PM 50.2°F10.1°C 41.5°F5.3°C 72% 16.2 mph SSW26.1 kmh SSW 28.2 mph45.4 kmh 28.51 in965.5 mb 0.00 in0.0 mm 0.00 in0.0 mm 0.43 in10.9 mm
06:10 PM 50.2°F10.1°C 41.1°F5.1°C 71% 11.7 mph SSE18.8 kmh SSE 16.8 mph27.0 kmh 28.52 in965.8 mb 0.00 in0.0 mm 0.00 in0.0 mm 0.43 in10.9 mm
06:20 PM 50.2°F10.1°C 39.3°F4.1°C 66% 13.0 mph S20.9 kmh S 15.9 mph25.6 kmh 28.52 in965.8 mb 0.00 in0.0 mm 0.00 in0.0 mm 0.43 in10.9 mm
06:30 PM 50.0°F10.0°C 39.5°F4.2°C 67% 10.3 mph SSW16.6 kmh SSW 15.9 mph25.6 kmh 28.53 in966.1 mb 0.00 in0.0 mm 0.00 in0.0 mm 0.43 in10.9 mm
06:40 PM 49.6°F9.8°C 38.8°F3.8°C 66% 14.6 mph SW23.5 kmh SW 21.3 mph34.3 kmh 28.53 in966.1 mb 0.00 in0.0 mm 0.00 in0.0 mm 0.43 in10.9 mm
06:50 PM 49.3°F9.6°C 38.4°F3.6°C 66% 11.7 mph WSW18.8 kmh WSW 21.3 mph34.3 kmh 28.54 in966.5 mb 0.00 in0.0 mm 0.00 in0.0 mm 0.43 in10.9 mm
07:00 PM 48.9°F9.4°C 38.5°F3.6°C 67% 12.6 mph SW20.3 kmh SW 22.1 mph35.6 kmh 28.53 in966.1 mb 0.00 in0.0 mm 0.00 in0.0 mm 0.43 in10.9 mm
07:10 PM 48.9°F9.4°C 39.2°F4.0°C 69% 11.1 mph SSE17.9 kmh SSE 16.8 mph27.0 kmh 28.54 in966.5 mb 0.00 in0.0 mm 0.00 in0.0 mm 0.43 in10.9 mm
07:20 PM 48.7°F9.3°C 39.4°F4.1°C 70% 11.3 mph S18.2 kmh S 16.8 mph27.0 kmh 28.54 in966.5 mb 0.00 in0.0 mm 0.00 in0.0 mm 0.43 in10.9 mm
07:30 PM 48.7°F9.3°C 39.4°F4.1°C 70% 9.9 mph WSW15.9 kmh WSW 13.6 mph21.9 kmh 28.54 in966.5 mb 0.00 in0.0 mm 0.00 in0.0 mm 0.43 in10.9 mm
07:40 PM 48.7°F9.3°C 39.4°F4.1°C 70% 8.7 mph W14.0 kmh W 12.1 mph19.5 kmh 28.54 in966.5 mb 0.00 in0.0 mm 0.00 in0.0 mm 0.43 in10.9 mm
07:50 PM 48.7°F9.3°C 39.0°F3.9°C 69% 10.0 mph SW16.1 kmh SW 15.2 mph24.5 kmh 28.53 in966.1 mb 0.00 in0.0 mm 0.00 in0.0 mm 0.43 in10.9 mm
08:00 PM 48.6°F9.2°C 38.5°F3.6°C 68% 11.5 mph SW18.5 kmh SW 15.9 mph25.6 kmh 28.53 in966.1 mb 0.00 in0.0 mm 0.00 in0.0 mm 0.43 in10.9 mm
08:10 PM 48.4°F9.1°C 37.9°F3.3°C 67% 11.2 mph WSW18.0 kmh WSW 17.4 mph28.0 kmh 28.53 in966.1 mb 0.00 in0.0 mm 0.00 in0.0 mm 0.43 in10.9 mm
08:20 PM 48.4°F9.1°C 37.2°F2.9°C 65% 12.1 mph S19.5 kmh S 19.0 mph30.6 kmh 28.52 in965.8 mb 0.00 in0.0 mm 0.00 in0.0 mm 0.43 in10.9 mm
08:30 PM 48.2°F9.0°C 37.4°F3.0°C 66% 10.2 mph SW16.4 kmh SW 16.8 mph27.0 kmh 28.53 in966.1 mb 0.00 in0.0 mm 0.00 in0.0 mm 0.43 in10.9 mm
08:40 PM 48.0°F8.9°C 37.6°F3.1°C 67% 9.1 mph SW14.6 kmh SW 11.4 mph18.3 kmh 28.52 in965.8 mb 0.00 in0.0 mm 0.00 in0.0 mm 0.43 in10.9 mm
08:50 PM 48.0°F8.9°C 38.3°F3.5°C 69% 8.2 mph SSW13.2 kmh SSW 12.1 mph19.5 kmh 28.51 in965.5 mb 0.00 in0.0 mm 0.00 in0.0 mm 0.43 in10.9 mm
09:00 PM 47.8°F8.8°C 38.5°F3.6°C 70% 8.0 mph S12.9 kmh S 13.6 mph21.9 kmh 28.51 in965.5 mb 0.00 in0.0 mm 0.00 in0.0 mm 0.43 in10.9 mm
09:10 PM 47.8°F8.8°C 38.5°F3.6°C 70% 7.6 mph SSW12.2 kmh SSW 12.1 mph19.5 kmh 28.51 in965.5 mb 0.00 in0.0 mm 0.00 in0.0 mm 0.43 in10.9 mm
09:20 PM 47.8°F8.8°C 38.5°F3.6°C 70% 6.5 mph SSW10.5 kmh SSW 9.8 mph15.8 kmh 28.50 in965.1 mb 0.00 in0.0 mm 0.00 in0.0 mm 0.43 in10.9 mm
09:30 PM 47.7°F8.7°C 38.4°F3.6°C 70% 8.0 mph SW12.9 kmh SW 11.4 mph18.3 kmh 28.50 in965.1 mb 0.00 in0.0 mm 0.00 in0.0 mm 0.43 in10.9 mm
09:40 PM 47.5°F8.6°C 38.2°F3.4°C 70% 6.9 mph SSW11.1 kmh SSW 8.3 mph13.4 kmh 28.49 in964.8 mb 0.00 in0.0 mm 0.00 in0.0 mm 0.43 in10.9 mm
09:50 PM 47.3°F8.5°C 38.0°F3.3°C 70% 7.8 mph SW12.6 kmh SW 13.0 mph20.9 kmh 28.49 in964.8 mb 0.00 in0.0 mm 0.00 in0.0 mm 0.43 in10.9 mm
10:00 PM 47.3°F8.5°C 38.0°F3.3°C 70% 7.8 mph SW12.6 kmh SW 12.1 mph19.5 kmh 28.48 in964.4 mb 0.00 in0.0 mm 0.00 in0.0 mm 0.43 in10.9 mm
10:10 PM 47.3°F8.5°C 38.0°F3.3°C 70% 7.8 mph SSW12.6 kmh SSW 13.0 mph20.9 kmh 28.47 in964.1 mb 0.00 in0.0 mm 0.00 in0.0 mm 0.43 in10.9 mm
10:20 PM 47.1°F8.4°C 37.8°F3.2°C 70% 6.5 mph WSW10.5 kmh WSW 9.2 mph14.8 kmh 28.46 in963.8 mb 0.00 in0.0 mm 0.00 in0.0 mm 0.43 in10.9 mm
10:30 PM 46.8°F8.2°C 37.5°F3.1°C 70% 4.9 mph WSW7.9 kmh WSW 6.9 mph11.1 kmh 28.47 in964.1 mb 0.00 in0.0 mm 0.00 in0.0 mm 0.43 in10.9 mm
10:40 PM 46.6°F8.1°C 37.7°F3.2°C 71% 5.9 mph SW9.5 kmh SW 9.8 mph15.8 kmh 28.47 in964.1 mb 0.00 in0.0 mm 0.00 in0.0 mm 0.43 in10.9 mm
10:50 PM 46.6°F8.1°C 37.7°F3.2°C 71% 4.8 mph WSW7.7 kmh WSW 6.0 mph9.7 kmh 28.47 in964.1 mb 0.00 in0.0 mm 0.00 in0.0 mm 0.43 in10.9 mm
11:00 PM 46.4°F8.0°C 37.5°F3.1°C 71% 6.1 mph WSW9.8 kmh WSW 8.3 mph13.4 kmh 28.47 in964.1 mb 0.00 in0.0 mm 0.00 in0.0 mm 0.43 in10.9 mm
11:10 PM 46.0°F7.8°C 37.2°F2.9°C 71% 3.6 mph WSW5.8 kmh WSW 5.4 mph8.7 kmh 28.46 in963.8 mb 0.00 in0.0 mm 0.00 in0.0 mm 0.43 in10.9 mm
11:20 PM 46.0°F7.8°C 37.2°F2.9°C 71% 4.0 mph WNW6.4 kmh WNW 6.0 mph9.7 kmh 28.46 in963.8 mb 0.00 in0.0 mm 0.00 in0.0 mm 0.43 in10.9 mm
11:30 PM 45.9°F7.7°C 37.0°F2.8°C 71% 3.5 mph NW5.6 kmh NW 6.0 mph9.7 kmh 28.46 in963.8 mb 0.00 in0.0 mm 0.00 in0.0 mm 0.43 in10.9 mm
11:40 PM 45.7°F7.6°C 37.2°F2.9°C 72% 4.4 mph NW7.1 kmh NW 6.0 mph9.7 kmh 28.46 in963.8 mb 0.01 in0.3 mm 0.06 in1.5 mm 0.44 in11.2 mm
11:50 PM 44.8°F7.1°C 38.7°F3.7°C 79% 6.3 mph WNW10.1 kmh WNW 9.2 mph14.8 kmh 28.45 in963.4 mb 0.01 in0.3 mm 0.00 in0.0 mm 0.44 in11.2 mm